createdAt,value
2018-09-27T00:00:20.561Z,5.70
2018-09-27T00:01:20.544Z,5.50
2018-09-27T00:02:20.527Z,5.70
2018-09-27T00:03:20.516Z,5.10
2018-09-27T00:04:20.509Z,5.50
2018-09-27T00:05:20.490Z,5.30
2018-09-27T00:06:20.467Z,5.30
2018-09-27T00:07:20.456Z,6.20
2018-09-27T00:08:20.438Z,5.70
2018-09-27T00:09:20.423Z,5.90
2018-09-27T00:10:20.407Z,5.70
2018-09-27T00:11:20.391Z,5.80
2018-09-27T00:12:20.379Z,5.40
2018-09-27T00:13:20.361Z,5.90
2018-09-27T00:14:20.380Z,5.40
2018-09-27T00:15:20.332Z,5.70
2018-09-27T00:16:20.318Z,6.00
2018-09-27T00:17:20.301Z,6.20
2018-09-27T00:18:20.290Z,5.90
2018-09-27T00:19:20.279Z,5.70
2018-09-27T00:20:20.257Z,6.20
2018-09-27T00:21:20.239Z,5.90
2018-09-27T00:22:20.234Z,5.90
2018-09-27T00:23:20.209Z,5.60
2018-09-27T00:24:20.196Z,5.90
2018-09-27T00:25:20.179Z,6.10
2018-09-27T00:26:20.164Z,6.20
2018-09-27T00:27:20.147Z,5.80
2018-09-27T00:28:20.134Z,5.80
2018-09-27T00:29:20.117Z,6.00
2018-09-27T00:30:20.106Z,5.90
2018-09-27T00:31:20.089Z,5.80
2018-09-27T00:32:20.071Z,6.60
2018-09-27T00:33:20.059Z,6.30
2018-09-27T00:34:20.044Z,6.00
2018-09-27T00:35:20.028Z,6.10
2018-09-27T00:36:20.015Z,6.20
2018-09-27T00:37:19.995Z,6.20
2018-09-27T00:38:19.980Z,6.30
2018-09-27T00:39:19.967Z,5.80
2018-09-27T00:40:19.948Z,6.40
2018-09-27T00:41:19.945Z,6.40
2018-09-27T00:42:19.917Z,6.60
2018-09-27T00:43:20.228Z,6.20
2018-09-27T00:44:19.887Z,6.60
2018-09-27T00:45:19.880Z,6.40
2018-09-27T00:46:19.861Z,6.70
2018-09-27T00:47:19.840Z,6.40
2018-09-27T00:48:19.823Z,6.20
2018-09-27T00:49:19.815Z,6.70
2018-09-27T00:50:19.794Z,6.60
2018-09-27T00:51:19.782Z,6.70
2018-09-27T00:52:19.765Z,5.90
2018-09-27T00:53:19.766Z,6.70
2018-09-27T00:54:19.733Z,6.30
2018-09-27T00:55:19.717Z,6.10
2018-09-27T00:56:19.702Z,6.40
2018-09-27T00:57:19.694Z,6.30
2018-09-27T00:58:19.672Z,6.00
2018-09-27T00:59:19.658Z,6.20
2018-09-27T01:00:19.639Z,6.50
2018-09-27T01:01:19.624Z,6.40
2018-09-27T01:02:19.607Z,6.90
2018-09-27T01:03:19.591Z,6.70
2018-09-27T01:04:19.580Z,6.40
2018-09-27T01:05:19.562Z,6.60
2018-09-27T01:06:19.548Z,6.00
2018-09-27T01:07:19.540Z,6.40
2018-09-27T01:08:19.842Z,7.00
2018-09-27T01:09:19.500Z,6.70
2018-09-27T01:10:19.485Z,6.80
2018-09-27T01:11:19.472Z,6.50
2018-09-27T01:12:19.454Z,6.40
2018-09-27T01:13:19.436Z,6.70
2018-09-27T01:14:19.423Z,6.60
2018-09-27T01:15:19.410Z,6.80
2018-09-27T01:16:19.393Z,6.80
2018-09-27T01:17:19.380Z,6.40
2018-09-27T01:18:19.368Z,6.40
2018-09-27T01:19:19.343Z,7.00
2018-09-27T01:20:19.325Z,7.00
2018-09-27T01:21:19.313Z,6.80
2018-09-27T01:22:19.299Z,6.70
2018-09-27T01:23:19.281Z,6.50
2018-09-27T01:24:19.290Z,6.80
2018-09-27T01:25:19.253Z,6.60
2018-09-27T01:26:19.232Z,6.60
2018-09-27T01:27:19.219Z,6.90
2018-09-27T01:28:19.209Z,7.00
2018-09-27T01:29:19.403Z,7.00
2018-09-27T01:30:19.186Z,7.00
2018-09-27T01:31:19.156Z,6.80
2018-09-27T01:32:19.138Z,6.60
2018-09-27T01:33:19.124Z,6.60
2018-09-27T01:34:19.110Z,7.00
2018-09-27T01:35:19.092Z,6.90
2018-09-27T01:36:19.075Z,6.80
2018-09-27T01:37:19.061Z,6.80
2018-09-27T01:38:19.043Z,6.60
2018-09-27T01:39:19.028Z,6.80
2018-09-27T01:40:19.014Z,6.50
2018-09-27T01:41:18.995Z,7.20
2018-09-27T01:42:18.983Z,7.30
2018-09-27T01:43:18.970Z,6.90
2018-09-27T01:44:18.947Z,7.20
2018-09-27T01:45:18.934Z,7.00
2018-09-27T01:46:18.917Z,7.00
2018-09-27T01:47:18.904Z,6.70
2018-09-27T01:48:18.889Z,6.40
2018-09-27T01:49:18.870Z,6.90
2018-09-27T01:50:18.853Z,6.90
2018-09-27T01:51:18.845Z,7.10
2018-09-27T01:52:18.821Z,7.00
2018-09-27T01:53:18.811Z,6.70
2018-09-27T01:54:18.830Z,7.70
2018-09-27T01:55:18.774Z,7.20
2018-09-27T01:56:18.758Z,6.70
2018-09-27T01:57:18.743Z,7.10
2018-09-27T01:58:18.726Z,7.30
2018-09-27T01:59:18.709Z,7.50
2018-09-27T02:00:18.692Z,7.00
2018-09-27T02:01:18.679Z,6.90
2018-09-27T02:02:18.664Z,7.10
2018-09-27T02:03:18.647Z,7.20
2018-09-27T02:04:18.630Z,6.70
2018-09-27T02:05:18.614Z,7.20
2018-09-27T02:06:18.605Z,7.40
2018-09-27T02:07:18.583Z,6.60
2018-09-27T02:08:18.567Z,7.10
2018-09-27T02:09:18.559Z,6.80
2018-09-27T02:10:18.536Z,6.70
2018-09-27T02:11:18.520Z,6.80
2018-09-27T02:12:18.505Z,6.80
2018-09-27T02:13:18.491Z,6.80
2018-09-27T02:14:18.473Z,7.50
2018-09-27T02:15:18.456Z,7.50
2018-09-27T02:17:18.424Z,7.40
2018-09-27T02:18:18.408Z,7.00
2018-09-27T02:19:18.388Z,6.90
2018-09-27T02:20:18.385Z,7.30
2018-09-27T02:21:18.359Z,6.90
2018-09-27T02:22:18.353Z,7.00
2018-09-27T02:23:18.328Z,6.80
2018-09-27T02:24:18.316Z,7.30
2018-09-27T02:25:18.295Z,7.10
2018-09-27T02:26:18.284Z,7.00
2018-09-27T02:27:18.260Z,6.80
2018-09-27T02:28:18.245Z,7.20
2018-09-27T02:29:18.232Z,7.10
2018-09-27T02:30:18.421Z,7.50
2018-09-27T02:31:18.202Z,7.40
2018-09-27T02:32:18.183Z,7.60
2018-09-27T02:33:18.165Z,7.20
2018-09-27T02:34:18.151Z,6.90
2018-09-27T02:35:18.135Z,7.50
2018-09-27T02:36:18.120Z,7.60
2018-09-27T02:37:18.103Z,7.00
2018-09-27T02:38:18.084Z,7.10
2018-09-27T02:39:18.067Z,7.30
2018-09-27T02:40:18.054Z,7.20
2018-09-27T02:41:18.037Z,7.20
2018-09-27T02:42:18.020Z,7.00
2018-09-27T02:43:18.008Z,7.30
2018-09-27T02:44:17.990Z,7.20
2018-09-27T02:45:17.974Z,7.80
2018-09-27T02:46:17.961Z,7.30
2018-09-27T02:47:17.940Z,6.60
2018-09-27T02:48:17.923Z,7.20
2018-09-27T02:49:17.909Z,7.60
2018-09-27T02:50:17.895Z,7.10
2018-09-27T02:51:17.881Z,7.10
2018-09-27T02:52:17.861Z,7.10
2018-09-27T02:53:17.845Z,7.50
2018-09-27T02:54:17.829Z,6.70
2018-09-27T02:55:17.811Z,7.40
2018-09-27T02:56:17.797Z,7.10
2018-09-27T02:57:17.785Z,7.80
2018-09-27T02:58:17.766Z,7.40
2018-09-27T02:59:17.752Z,7.60
2018-09-27T03:00:17.737Z,7.10
2018-09-27T03:01:17.718Z,7.70
2018-09-27T03:02:17.700Z,7.30
2018-09-27T03:03:17.687Z,7.00
2018-09-27T03:04:17.670Z,7.30
2018-09-27T03:05:17.654Z,6.70
2018-09-27T03:06:17.636Z,7.40
2018-09-27T03:07:17.620Z,7.30
2018-09-27T03:08:17.605Z,7.20
2018-09-27T03:09:17.591Z,7.10
2018-09-27T03:10:17.573Z,7.30
2018-09-27T03:11:17.557Z,7.30
2018-09-27T03:12:17.545Z,6.70
2018-09-27T03:13:17.528Z,6.80
2018-09-27T03:14:17.507Z,7.20
2018-09-27T03:15:17.492Z,6.90
2018-09-27T03:16:17.478Z,7.60
2018-09-27T03:17:17.459Z,7.50
2018-09-27T03:18:17.446Z,7.20
2018-09-27T03:19:17.428Z,7.40
2018-09-27T03:20:17.417Z,6.60
2018-09-27T03:21:17.396Z,7.00
2018-09-27T03:22:17.381Z,7.30
2018-09-27T03:23:17.364Z,6.90
2018-09-27T03:24:17.349Z,6.40
2018-09-27T03:25:17.334Z,7.10
2018-09-27T03:26:17.318Z,7.10
2018-09-27T03:27:17.299Z,7.30
2018-09-27T03:28:17.292Z,6.60
2018-09-27T03:29:17.268Z,7.30
2018-09-27T03:30:17.255Z,8.10
2018-09-27T03:31:17.237Z,7.10
2018-09-27T03:32:17.226Z,7.40
2018-09-27T03:33:17.207Z,6.90
2018-09-27T03:34:17.192Z,7.20
2018-09-27T03:35:17.190Z,6.90
2018-09-27T03:36:17.160Z,7.10
2018-09-27T03:37:17.143Z,6.90
2018-09-27T03:38:17.129Z,7.00
2018-09-27T03:39:17.111Z,7.00
2018-09-27T03:40:17.159Z,7.20
2018-09-27T03:41:17.081Z,7.40
2018-09-27T03:42:17.065Z,7.10
2018-09-27T03:43:17.053Z,7.10
2018-09-27T03:44:17.034Z,7.50
2018-09-27T03:45:17.033Z,7.20
2018-09-27T03:46:17.010Z,7.50
2018-09-27T03:47:16.985Z,7.00
2018-09-27T03:48:16.967Z,6.70
2018-09-27T03:49:16.954Z,6.60
2018-09-27T03:50:16.949Z,6.70
2018-09-27T03:51:16.923Z,7.10
2018-09-27T03:52:16.909Z,7.00
2018-09-27T03:53:16.892Z,7.40
2018-09-27T03:54:16.874Z,6.90
2018-09-27T03:55:16.859Z,7.60
2018-09-27T03:56:16.845Z,6.80
2018-09-27T03:57:16.836Z,7.30
2018-09-27T03:58:16.808Z,7.10
2018-09-27T03:59:16.794Z,6.70
2018-09-27T04:00:16.777Z,7.30
2018-09-27T04:01:16.766Z,7.70
2018-09-27T04:02:16.746Z,7.40
2018-09-27T04:03:16.764Z,6.80
2018-09-27T04:04:16.714Z,7.60
2018-09-27T04:05:16.700Z,7.40
2018-09-27T04:06:16.686Z,7.10
2018-09-27T04:07:16.667Z,7.20
2018-09-27T04:08:16.654Z,7.20
2018-09-27T04:09:16.638Z,7.20
2018-09-27T04:10:16.622Z,6.70
2018-09-27T04:11:16.603Z,7.30
2018-09-27T04:12:16.600Z,7.80
2018-09-27T04:13:16.575Z,7.10
2018-09-27T04:14:16.564Z,7.00
2018-09-27T04:15:16.540Z,6.60
2018-09-27T04:16:16.528Z,7.10
2018-09-27T04:17:16.508Z,7.50
2018-09-27T04:18:16.495Z,6.70
2018-09-27T04:19:16.476Z,7.00
2018-09-27T04:20:16.462Z,6.90
2018-09-27T04:21:16.449Z,7.30
2018-09-27T04:22:16.430Z,7.20
2018-09-27T04:23:16.415Z,7.30
2018-09-27T04:24:16.402Z,6.70
2018-09-27T04:25:16.384Z,7.80
2018-09-27T04:26:16.367Z,7.40
2018-09-27T04:27:16.350Z,7.00
2018-09-27T04:28:16.336Z,7.20
2018-09-27T04:29:16.320Z,7.10
2018-09-27T04:30:16.303Z,7.40
2018-09-27T04:31:16.291Z,7.20
2018-09-27T04:32:16.273Z,7.70
2018-09-27T04:33:16.263Z,7.40
2018-09-27T04:34:16.240Z,7.00
2018-09-27T04:35:16.226Z,6.90
2018-09-27T04:36:16.222Z,6.60
2018-09-27T04:37:16.214Z,6.90
2018-09-27T04:38:16.179Z,6.90
2018-09-27T04:39:16.173Z,6.90
2018-09-27T04:40:16.150Z,6.90
2018-09-27T04:41:16.131Z,7.00
2018-09-27T04:42:16.121Z,7.00
2018-09-27T04:43:16.099Z,6.90
2018-09-27T04:44:16.085Z,6.90
2018-09-27T04:45:16.074Z,7.10
2018-09-27T04:46:16.060Z,7.10
2018-09-27T04:47:16.037Z,6.80
2018-09-27T04:48:16.023Z,6.70
2018-09-27T04:49:16.007Z,6.80
2018-09-27T04:50:15.993Z,7.00
2018-09-27T04:51:15.974Z,7.10
2018-09-27T04:52:15.960Z,7.10
2018-09-27T04:53:15.942Z,6.60
2018-09-27T04:54:15.925Z,7.20
2018-09-27T04:55:15.913Z,6.70
2018-09-27T04:56:15.896Z,6.80
2018-09-27T04:57:15.880Z,6.80
2018-09-27T04:58:15.865Z,6.40
2018-09-27T04:59:15.851Z,7.10
2018-09-27T05:00:15.835Z,7.00
2018-09-27T05:01:15.821Z,7.00
2018-09-27T05:02:15.808Z,7.00
2018-09-27T05:03:15.787Z,6.70
2018-09-27T05:04:15.771Z,7.00
2018-09-27T05:05:15.752Z,6.80
2018-09-27T05:06:15.753Z,6.60
2018-09-27T05:07:15.726Z,6.40
2018-09-27T05:08:15.713Z,7.70
2018-09-27T05:09:15.690Z,7.30
2018-09-27T05:10:15.677Z,6.50
2018-09-27T05:11:15.666Z,7.10
2018-09-27T05:12:15.644Z,7.00
2018-09-27T05:13:15.626Z,6.90
2018-09-27T05:14:15.610Z,7.40
2018-09-27T05:15:15.594Z,6.70
2018-09-27T05:16:15.583Z,6.90
2018-09-27T05:17:15.563Z,7.10
2018-09-27T05:18:15.547Z,7.00
2018-09-27T05:19:15.531Z,6.90
2018-09-27T05:20:15.514Z,7.10
2018-09-27T05:21:15.513Z,6.90
2018-09-27T05:22:15.494Z,7.00
2018-09-27T05:23:15.465Z,6.80
2018-09-27T05:24:15.449Z,7.20
2018-09-27T05:25:15.434Z,7.90
2018-09-27T05:26:15.418Z,7.40
2018-09-27T05:27:15.461Z,7.40
2018-09-27T05:28:15.389Z,7.30
2018-09-27T05:29:15.379Z,7.30
2018-09-27T05:30:15.354Z,7.60
2018-09-27T05:31:15.342Z,7.40
2018-09-27T05:32:15.324Z,7.40
2018-09-27T05:33:15.305Z,7.40
2018-09-27T05:34:15.290Z,7.30
2018-09-27T05:35:15.274Z,7.80
2018-09-27T05:36:15.257Z,6.70
2018-09-27T05:37:15.243Z,7.40
2018-09-27T05:38:15.228Z,7.40
2018-09-27T05:39:15.211Z,7.50
2018-09-27T05:40:15.194Z,7.50
2018-09-27T05:41:15.181Z,7.60
2018-09-27T05:42:15.163Z,7.70
2018-09-27T05:43:15.155Z,7.10
2018-09-27T05:44:15.133Z,7.30
2018-09-27T05:45:15.117Z,8.10
2018-09-27T05:46:15.107Z,7.60
2018-09-27T05:47:15.085Z,7.20
2018-09-27T05:48:15.071Z,7.30
2018-09-27T05:49:15.051Z,7.40
2018-09-27T05:50:15.039Z,7.70
2018-09-27T05:51:15.021Z,7.60
2018-09-27T05:52:15.003Z,7.70
2018-09-27T05:53:14.990Z,6.70
2018-09-27T05:54:14.972Z,8.10
2018-09-27T05:55:14.958Z,6.80
2018-09-27T05:56:14.942Z,7.60
2018-09-27T05:57:14.927Z,7.90
2018-09-27T05:58:14.913Z,7.80
2018-09-27T05:59:14.894Z,8.10
2018-09-27T06:00:14.878Z,7.60
2018-09-27T06:01:14.861Z,7.70
2018-09-27T06:02:14.845Z,8.00
2018-09-27T06:03:14.827Z,7.70
2018-09-27T06:04:14.818Z,7.60
2018-09-27T06:05:14.798Z,7.20
2018-09-27T06:06:14.780Z,7.70
2018-09-27T06:07:14.765Z,7.90
2018-09-27T06:08:14.750Z,7.50
2018-09-27T06:09:14.735Z,7.80
2018-09-27T06:10:14.716Z,7.80
2018-09-27T06:11:14.749Z,7.70
2018-09-27T06:12:14.684Z,8.00
2018-09-27T06:13:14.675Z,7.90
2018-09-27T06:14:14.652Z,8.30
2018-09-27T06:15:14.638Z,8.30
2018-09-27T06:16:14.630Z,7.90
2018-09-27T06:17:14.616Z,7.90
2018-09-27T06:18:14.588Z,7.80
2018-09-27T06:19:14.631Z,7.50
2018-09-27T06:20:14.557Z,7.30
2018-09-27T06:21:14.549Z,7.20
2018-09-27T06:22:14.524Z,7.80
2018-09-27T06:23:14.510Z,8.20
2018-09-27T06:24:14.500Z,8.00
2018-09-27T06:25:14.485Z,8.80
2018-09-27T06:26:14.560Z,7.90
2018-09-27T06:27:14.446Z,8.20
2018-09-27T06:28:14.440Z,7.90
2018-09-27T06:29:14.418Z,7.80
2018-09-27T06:30:14.398Z,8.60
2018-09-27T06:31:14.381Z,8.10
2018-09-27T06:32:14.365Z,8.10
2018-09-27T06:33:14.352Z,8.30
2018-09-27T06:34:14.332Z,8.70
2018-09-27T06:35:14.319Z,8.10
2018-09-27T06:36:14.306Z,7.90
2018-09-27T06:37:14.285Z,7.70
2018-09-27T06:38:14.267Z,7.70
2018-09-27T06:39:14.261Z,8.50
2018-09-27T06:40:14.245Z,8.20
2018-09-27T06:41:14.274Z,9.00
2018-09-27T06:42:14.209Z,9.20
2018-09-27T06:43:14.199Z,8.10
2018-09-27T06:44:14.176Z,8.20
2018-09-27T06:45:14.159Z,7.90
2018-09-27T06:46:14.149Z,8.00
2018-09-27T06:47:14.125Z,8.10
2018-09-27T06:48:14.113Z,8.50
2018-09-27T06:49:14.093Z,8.60
2018-09-27T06:50:14.081Z,8.40
2018-09-27T06:51:14.064Z,8.30
2018-09-27T06:52:14.053Z,8.30
2018-09-27T06:53:14.037Z,8.70
2018-09-27T06:54:14.025Z,9.00
2018-09-27T06:55:14.247Z,8.70
2018-09-27T06:56:14.042Z,8.60
2018-09-27T06:57:13.984Z,8.50
2018-09-27T06:58:13.965Z,9.20
2018-09-27T06:59:13.952Z,8.70
2018-09-27T07:00:13.944Z,8.60
2018-09-27T07:01:13.925Z,8.80
2018-09-27T07:02:13.911Z,8.20
2018-09-27T07:03:13.896Z,8.60
2018-09-27T07:04:13.884Z,9.10
2018-09-27T07:05:13.870Z,9.00
2018-09-27T07:06:13.864Z,8.50
2018-09-27T07:07:13.903Z,9.30
2018-09-27T07:08:13.832Z,9.00
2018-09-27T07:09:13.825Z,9.40
2018-09-27T07:10:13.816Z,9.50
2018-09-27T07:11:13.800Z,9.10
2018-09-27T07:12:13.918Z,8.80
2018-09-27T07:13:13.785Z,10.10
2018-09-27T07:14:13.776Z,8.80
2018-09-27T07:15:13.769Z,8.80
2018-09-27T07:16:13.759Z,8.80
2018-09-27T07:17:13.759Z,8.90
2018-09-27T07:18:13.743Z,8.90
2018-09-27T07:19:13.730Z,8.80
2018-09-27T07:20:13.746Z,8.40
2018-09-27T07:21:13.721Z,8.60
2018-09-27T07:22:13.722Z,8.40
2018-09-27T07:23:13.711Z,8.80
2018-09-27T07:24:13.706Z,9.50
2018-09-27T07:25:13.756Z,9.60
2018-09-27T07:26:13.699Z,8.90
2018-09-27T07:27:13.693Z,8.50
2018-09-27T07:28:13.693Z,9.30
2018-09-27T07:29:13.686Z,9.40
2018-09-27T07:30:13.685Z,9.10
2018-09-27T07:31:13.706Z,8.90
2018-09-27T07:32:13.680Z,8.30
2018-09-27T07:33:13.683Z,8.60
2018-09-27T07:34:13.676Z,8.70
2018-09-27T07:35:13.677Z,8.70
2018-09-27T07:36:13.690Z,9.20
2018-09-27T07:37:13.674Z,9.20
2018-09-27T07:38:13.670Z,9.00
2018-09-27T07:39:13.667Z,9.10
2018-09-27T07:40:13.664Z,9.40
2018-09-27T07:41:13.664Z,9.20
2018-09-27T07:42:13.666Z,8.40
2018-09-27T07:43:13.664Z,9.90
2018-09-27T07:44:13.666Z,9.70
2018-09-27T07:45:13.672Z,9.00
2018-09-27T07:46:13.667Z,8.60
2018-09-27T07:47:13.678Z,8.90
2018-09-27T07:48:13.671Z,9.80
2018-09-27T07:49:13.677Z,9.10
2018-09-27T07:50:13.676Z,9.10
2018-09-27T07:51:13.674Z,8.70
2018-09-27T07:52:13.673Z,9.50
2018-09-27T07:53:13.677Z,8.70
2018-09-27T07:54:13.685Z,8.80
2018-09-27T07:55:13.686Z,9.10
2018-09-27T07:56:13.681Z,8.40
2018-09-27T07:57:13.691Z,8.90
2018-09-27T07:58:13.685Z,8.50
2018-09-27T07:59:13.686Z,8.40
2018-09-27T08:00:13.698Z,9.00
2018-09-27T08:01:13.690Z,8.90
2018-09-27T08:02:13.695Z,8.60
2018-09-27T08:03:13.696Z,9.60
2018-09-27T08:04:13.815Z,9.00
2018-09-27T08:05:13.701Z,9.00
2018-09-27T08:06:13.708Z,9.60
2018-09-27T08:07:13.709Z,9.80
2018-09-27T08:08:13.716Z,9.40
2018-09-27T08:09:13.718Z,9.30
2018-09-27T08:10:13.720Z,8.90
2018-09-27T08:11:13.848Z,9.80
2018-09-27T08:12:13.725Z,9.90
2018-09-27T08:13:13.738Z,9.30
2018-09-27T08:14:13.736Z,10.10
2018-09-27T08:15:13.738Z,10.00
2018-09-27T08:16:13.740Z,10.00
2018-09-27T08:17:13.751Z,10.40
2018-09-27T08:18:13.763Z,9.30
2018-09-27T08:19:13.753Z,10.20
2018-09-27T08:20:13.796Z,10.90
2018-09-27T08:21:13.924Z,10.40
2018-09-27T08:22:13.773Z,10.70
2018-09-27T08:23:13.766Z,11.20
2018-09-27T08:24:13.869Z,11.10
2018-09-27T08:25:13.782Z,10.30
2018-09-27T08:26:13.779Z,10.50
2018-09-27T08:27:13.782Z,10.90
2018-09-27T08:28:13.789Z,10.50
2018-09-27T08:29:13.791Z,11.60
2018-09-27T08:30:13.802Z,10.80
2018-09-27T08:31:13.901Z,10.60
2018-09-27T08:32:13.845Z,11.60
2018-09-27T08:33:13.804Z,10.20
2018-09-27T08:34:13.807Z,11.20
2018-09-27T08:35:13.813Z,11.10
2018-09-27T08:36:13.813Z,11.60
2018-09-27T08:37:13.819Z,12.30
2018-09-27T08:38:13.832Z,11.10
2018-09-27T08:39:13.826Z,11.80
2018-09-27T08:40:13.830Z,11.30
2018-09-27T08:41:13.838Z,11.60
2018-09-27T08:42:13.837Z,11.50
2018-09-27T08:43:13.846Z,11.90
2018-09-27T08:44:13.847Z,12.20
2018-09-27T08:45:14.229Z,11.90
2018-09-27T08:46:13.849Z,11.50
2018-09-27T08:47:13.860Z,12.70
2018-09-27T08:48:13.856Z,12.20
2018-09-27T08:49:13.861Z,12.00
2018-09-27T08:50:13.865Z,12.40
2018-09-27T08:51:13.866Z,12.00
2018-09-27T08:52:13.867Z,12.30
2018-09-27T08:53:13.873Z,12.40
2018-09-27T08:54:13.874Z,12.30
2018-09-27T08:55:13.877Z,12.40
2018-09-27T08:56:14.049Z,11.90
2018-09-27T08:57:13.883Z,12.40
2018-09-27T08:58:13.886Z,11.80
2018-09-27T08:59:13.886Z,12.60
2018-09-27T09:00:13.895Z,12.70
2018-09-27T09:01:13.895Z,12.90
2018-09-27T09:02:13.897Z,12.90
2018-09-27T09:03:13.903Z,12.70
2018-09-27T09:04:13.901Z,12.40
2018-09-27T09:05:13.902Z,13.10
2018-09-27T09:06:13.904Z,12.90
2018-09-27T09:07:13.907Z,12.90
2018-09-27T09:08:13.911Z,12.60
2018-09-27T09:09:13.913Z,12.00
2018-09-27T09:10:13.912Z,12.30
2018-09-27T09:11:13.916Z,12.40
2018-09-27T09:12:13.977Z,12.90
2018-09-27T09:13:13.917Z,13.50
2018-09-27T09:14:13.919Z,13.40
2018-09-27T09:15:13.924Z,13.20
2018-09-27T09:16:13.922Z,12.00
2018-09-27T09:17:13.926Z,12.00
2018-09-27T09:18:13.928Z,13.20
2018-09-27T09:19:13.927Z,14.00
2018-09-27T09:20:13.927Z,13.20
2018-09-27T09:21:13.931Z,13.80
2018-09-27T09:22:13.928Z,13.80
2018-09-27T09:23:13.930Z,13.00
2018-09-27T09:24:13.930Z,13.20
2018-09-27T09:25:13.930Z,13.90
2018-09-27T09:26:13.932Z,13.20
2018-09-27T09:27:13.931Z,13.40
2018-09-27T09:28:13.935Z,13.30
2018-09-27T09:29:13.935Z,13.20
2018-09-27T09:30:13.945Z,13.50
2018-09-27T09:31:13.930Z,13.20
2018-09-27T09:32:13.936Z,13.90
2018-09-27T09:33:13.931Z,13.60
2018-09-27T09:34:13.932Z,13.10
2018-09-27T09:35:13.934Z,13.20
2018-09-27T09:36:13.931Z,12.90
2018-09-27T09:37:13.935Z,13.40
2018-09-27T09:38:13.930Z,12.70
2018-09-27T09:39:13.930Z,12.70
2018-09-27T09:40:13.922Z,13.40
2018-09-27T09:41:13.922Z,13.20
2018-09-27T09:42:13.924Z,12.70
2018-09-27T09:43:13.916Z,13.60
2018-09-27T09:44:13.917Z,12.60
2018-09-27T09:45:13.915Z,13.20
2018-09-27T09:46:13.911Z,13.00
2018-09-27T09:47:13.911Z,12.70
2018-09-27T09:48:13.907Z,12.70
2018-09-27T09:49:13.904Z,12.60
2018-09-27T09:50:13.903Z,12.20
2018-09-27T09:51:13.905Z,13.00
2018-09-27T09:52:13.897Z,13.70
2018-09-27T09:53:13.900Z,14.10
2018-09-27T09:54:13.893Z,13.60
2018-09-27T09:55:13.891Z,14.60
2018-09-27T09:56:13.887Z,13.80
2018-09-27T09:57:13.884Z,14.00
2018-09-27T09:58:13.882Z,14.70
2018-09-27T09:59:13.888Z,14.00
2018-09-27T10:00:13.878Z,14.60
2018-09-27T10:01:13.876Z,13.80
2018-09-27T10:02:13.874Z,14.20
2018-09-27T10:03:13.870Z,14.40
2018-09-27T10:04:13.863Z,14.60
2018-09-27T10:05:13.857Z,14.50
2018-09-27T10:06:13.852Z,14.80
2018-09-27T10:07:13.850Z,14.30
2018-09-27T10:08:13.847Z,14.30
2018-09-27T10:09:13.844Z,13.60
2018-09-27T10:10:13.851Z,14.00
2018-09-27T10:11:13.836Z,14.30
2018-09-27T10:12:13.835Z,13.70
2018-09-27T10:13:13.829Z,14.30
2018-09-27T10:14:13.823Z,13.50
2018-09-27T10:15:13.828Z,14.30
2018-09-27T10:16:13.817Z,14.50
2018-09-27T10:17:13.813Z,14.90
2018-09-27T10:18:13.808Z,14.40
2018-09-27T10:19:13.807Z,14.90
2018-09-27T10:20:13.801Z,14.70
2018-09-27T10:21:13.805Z,14.70
2018-09-27T10:22:13.986Z,15.30
2018-09-27T10:23:13.797Z,15.80
2018-09-27T10:24:13.787Z,14.80
2018-09-27T10:25:13.781Z,14.60
2018-09-27T10:26:13.777Z,14.30
2018-09-27T10:27:13.791Z,14.70
2018-09-27T10:28:13.778Z,14.40
2018-09-27T10:29:13.766Z,14.40
2018-09-27T10:30:13.757Z,14.90
2018-09-27T10:31:13.757Z,15.00
2018-09-27T10:32:13.755Z,14.40
2018-09-27T10:33:13.749Z,14.30
2018-09-27T10:34:13.769Z,13.10
2018-09-27T10:35:13.738Z,14.10
2018-09-27T10:36:13.752Z,14.70
2018-09-27T10:37:13.732Z,13.20
2018-09-27T10:38:13.725Z,13.20
2018-09-27T10:39:13.728Z,15.00
2018-09-27T10:40:13.717Z,13.10
2018-09-27T10:41:13.716Z,13.40
2018-09-27T10:42:13.711Z,13.50
2018-09-27T10:43:13.704Z,13.70
2018-09-27T10:44:13.697Z,13.00
2018-09-27T10:45:13.695Z,13.00
2018-09-27T10:46:13.694Z,12.90
2018-09-27T10:47:13.685Z,14.10
2018-09-27T10:48:13.683Z,13.60
2018-09-27T10:49:13.679Z,14.50
2018-09-27T10:50:13.672Z,13.30
2018-09-27T10:51:13.680Z,13.50
2018-09-27T10:52:13.664Z,12.80
2018-09-27T10:53:13.661Z,13.40
2018-09-27T10:54:13.655Z,13.30
2018-09-27T10:55:13.650Z,12.90
2018-09-27T10:56:13.649Z,13.20
2018-09-27T10:57:13.715Z,13.50
2018-09-27T10:58:13.639Z,13.40
2018-09-27T10:59:13.627Z,13.30
2018-09-27T11:00:13.628Z,13.80
2018-09-27T11:01:13.622Z,13.90
2018-09-27T11:02:13.619Z,13.70
2018-09-27T11:03:13.614Z,13.60
2018-09-27T11:04:13.629Z,13.30
2018-09-27T11:05:13.598Z,12.90
2018-09-27T11:06:13.593Z,12.40
2018-09-27T11:07:13.585Z,13.30
2018-09-27T11:08:13.583Z,13.10
2018-09-27T11:09:13.576Z,13.50
2018-09-27T11:10:13.582Z,13.00
2018-09-27T11:11:13.600Z,13.40
2018-09-27T11:12:13.563Z,12.40
2018-09-27T11:13:13.554Z,12.80
2018-09-27T11:14:13.548Z,12.90
2018-09-27T11:15:13.541Z,13.10
2018-09-27T11:16:13.537Z,13.00
2018-09-27T11:17:13.739Z,12.80
2018-09-27T11:18:13.521Z,13.30
2018-09-27T11:19:13.521Z,12.70
2018-09-27T11:20:13.509Z,11.60
2018-09-27T11:21:13.502Z,12.40
2018-09-27T11:22:13.498Z,11.30
2018-09-27T11:23:13.493Z,12.80
2018-09-27T11:24:13.492Z,12.50
2018-09-27T11:25:13.480Z,11.70
2018-09-27T11:26:13.474Z,12.00
2018-09-27T11:27:13.468Z,12.30
2018-09-27T11:28:13.458Z,12.30
2018-09-27T11:29:13.465Z,12.70
2018-09-27T11:30:13.456Z,12.80
2018-09-27T11:31:13.442Z,12.30
2018-09-27T11:32:13.436Z,12.40
2018-09-27T11:33:13.431Z,12.40
2018-09-27T11:34:13.423Z,13.10
2018-09-27T11:35:13.413Z,13.10
2018-09-27T11:36:13.669Z,13.40
2018-09-27T11:37:13.403Z,12.60
2018-09-27T11:38:13.396Z,12.60
2018-09-27T11:39:13.385Z,12.10
2018-09-27T11:40:13.385Z,11.70
2018-09-27T11:41:13.378Z,12.30
2018-09-27T11:42:13.419Z,12.30
2018-09-27T11:43:13.359Z,12.30
2018-09-27T11:44:13.464Z,13.00
2018-09-27T11:45:13.351Z,13.10
2018-09-27T11:46:13.344Z,12.70
2018-09-27T11:47:13.333Z,11.60
2018-09-27T11:48:13.327Z,11.60
2018-09-27T11:49:13.404Z,11.90
2018-09-27T11:50:13.332Z,11.60
2018-09-27T11:51:13.308Z,11.20
2018-09-27T11:52:13.305Z,11.60
2018-09-27T11:53:13.295Z,11.70
2018-09-27T11:54:13.290Z,12.00
2018-09-27T11:55:13.378Z,11.60
2018-09-27T11:56:13.289Z,11.50
2018-09-27T11:57:13.274Z,10.90
2018-09-27T11:58:13.266Z,11.10
2018-09-27T11:59:13.476Z,10.70
2018-09-27T12:00:13.250Z,11.30
2018-09-27T12:01:13.240Z,10.20
2018-09-27T12:02:13.236Z,10.80
2018-09-27T12:03:13.228Z,10.40
2018-09-27T12:04:13.226Z,10.20
2018-09-27T12:05:13.222Z,10.50
2018-09-27T12:06:13.208Z,10.00
2018-09-27T12:07:13.205Z,10.00
2018-09-27T12:08:13.204Z,8.70
2018-09-27T12:09:13.197Z,9.30
2018-09-27T12:10:13.186Z,9.00
2018-09-27T12:11:13.175Z,8.90
2018-09-27T12:12:13.169Z,8.00
2018-09-27T12:13:13.505Z,8.50
2018-09-27T12:14:13.171Z,8.00
2018-09-27T12:15:13.147Z,8.10
2018-09-27T12:16:13.146Z,8.50
2018-09-27T12:17:13.133Z,8.50
2018-09-27T12:18:13.129Z,8.10
2018-09-27T12:19:13.119Z,8.40
2018-09-27T12:20:13.113Z,8.00
2018-09-27T12:21:13.107Z,8.60
2018-09-27T12:22:13.101Z,8.40
2018-09-27T12:23:13.098Z,8.80
2018-09-27T12:24:13.085Z,9.60
2018-09-27T12:25:13.080Z,9.30
2018-09-27T12:26:13.080Z,9.90
2018-09-27T12:27:13.067Z,9.50
2018-09-27T12:28:13.058Z,9.60
2018-09-27T12:29:13.673Z,9.60
2018-09-27T12:30:13.045Z,9.10
2018-09-27T12:31:13.045Z,9.00
2018-09-27T12:32:13.030Z,8.70
2018-09-27T12:33:13.349Z,8.10
2018-09-27T12:34:13.041Z,8.70
2018-09-27T12:35:13.008Z,8.50
2018-09-27T12:36:13.012Z,8.70
2018-09-27T12:37:13.002Z,8.50
2018-09-27T12:38:13.032Z,8.30
2018-09-27T12:39:12.984Z,7.20
2018-09-27T12:40:12.985Z,7.80
2018-09-27T12:41:12.971Z,8.00
2018-09-27T12:42:13.223Z,8.20
2018-09-27T12:43:12.965Z,8.00
2018-09-27T12:44:12.957Z,8.10
2018-09-27T12:45:13.026Z,8.00
2018-09-27T12:46:12.948Z,7.30
2018-09-27T12:47:12.933Z,6.30
2018-09-27T12:48:12.943Z,6.60
2018-09-27T12:49:12.919Z,7.00
2018-09-27T12:50:12.913Z,6.40
2018-09-27T12:51:13.213Z,6.20
2018-09-27T12:52:13.293Z,6.80
2018-09-27T12:53:13.000Z,6.30
2018-09-27T12:54:12.887Z,6.60
2018-09-27T12:55:12.883Z,6.50
2018-09-27T12:56:12.873Z,6.20
2018-09-27T12:57:12.962Z,6.60
2018-09-27T12:58:12.862Z,6.00
2018-09-27T12:59:12.863Z,6.20
2018-09-27T13:00:12.851Z,6.30
2018-09-27T13:01:12.842Z,6.00
2018-09-27T13:02:13.212Z,6.50
2018-09-27T13:03:12.832Z,6.40
2018-09-27T13:04:12.828Z,7.00
2018-09-27T13:05:12.820Z,6.60
2018-09-27T13:06:12.817Z,6.80
2018-09-27T13:07:12.807Z,6.90
2018-09-27T13:08:12.805Z,6.40
2018-09-27T13:09:12.946Z,6.30
2018-09-27T13:10:12.821Z,6.30
2018-09-27T13:11:12.780Z,6.40